sensor_id;sensor_type;location;lat;lon;timestamp;temperature;humidity
4677;DHT22;2352;48.180;11.478;2023-02-01T00:00:15;5.40;95.70
4677;DHT22;2352;48.180;11.478;2023-02-01T00:03:18;5.50;95.90
4677;DHT22;2352;48.180;11.478;2023-02-01T00:06:22;5.40;95.70
4677;DHT22;2352;48.180;11.478;2023-02-01T00:09:25;5.50;95.70
4677;DHT22;2352;48.180;11.478;2023-02-01T00:12:28;5.60;95.50
4677;DHT22;2352;48.180;11.478;2023-02-01T00:15:31;5.60;95.40
4677;DHT22;2352;48.180;11.478;2023-02-01T00:18:35;5.60;95.30
4677;DHT22;2352;48.180;11.478;2023-02-01T00:21:40;5.50;95.40
4677;DHT22;2352;48.180;11.478;2023-02-01T00:24:43;5.50;95.40
4677;DHT22;2352;48.180;11.478;2023-02-01T00:27:48;5.50;95.50
4677;DHT22;2352;48.180;11.478;2023-02-01T00:30:56;5.60;95.40
4677;DHT22;2352;48.180;11.478;2023-02-01T00:33:59;5.50;95.80
4677;DHT22;2352;48.180;11.478;2023-02-01T00:37:04;5.60;95.90
4677;DHT22;2352;48.180;11.478;2023-02-01T00:40:08;5.70;95.90
4677;DHT22;2352;48.180;11.478;2023-02-01T00:43:11;5.70;96.00
4677;DHT22;2352;48.180;11.478;2023-02-01T00:46:15;5.50;96.90
4677;DHT22;2352;48.180;11.478;2023-02-01T00:49:18;5.30;98.00
4677;DHT22;2352;48.180;11.478;2023-02-01T00:52:23;5.20;98.80
4677;DHT22;2352;48.180;11.478;2023-02-01T00:55:26;5.30;98.90
4677;DHT22;2352;48.180;11.478;2023-02-01T00:58:29;5.50;98.10
4677;DHT22;2352;48.180;11.478;2023-02-01T01:01:32;5.40;98.50
4677;DHT22;2352;48.180;11.478;2023-02-01T01:04:35;5.40;98.40
4677;DHT22;2352;48.180;11.478;2023-02-01T01:07:40;5.40;98.40
4677;DHT22;2352;48.180;11.478;2023-02-01T01:10:43;5.40;98.30
4677;DHT22;2352;48.180;11.478;2023-02-01T01:13:47;5.30;98.50
4677;DHT22;2352;48.180;11.478;2023-02-01T01:16:50;5.20;98.80
4677;DHT22;2352;48.180;11.478;2023-02-01T01:19:53;5.20;99.10
4677;DHT22;2352;48.180;11.478;2023-02-01T01:22:57;5.20;98.90
4677;DHT22;2352;48.180;11.478;2023-02-01T01:26:00;5.40;98.90
4677;DHT22;2352;48.180;11.478;2023-02-01T01:29:09;5.30;98.80
4677;DHT22;2352;48.180;11.478;2023-02-01T01:32:12;5.30;98.80
4677;DHT22;2352;48.180;11.478;2023-02-01T01:35:15;5.40;98.60
4677;DHT22;2352;48.180;11.478;2023-02-01T01:38:20;5.60;98.20
4677;DHT22;2352;48.180;11.478;2023-02-01T01:41:24;5.50;98.40
4677;DHT22;2352;48.180;11.478;2023-02-01T01:44:56;5.50;98.80
4677;DHT22;2352;48.180;11.478;2023-02-01T01:48:02;5.50;99.10
4677;DHT22;2352;48.180;11.478;2023-02-01T01:51:09;5.30;99.60
4677;DHT22;2352;48.180;11.478;2023-02-01T01:54:18;5.30;99.80
4677;DHT22;2352;48.180;11.478;2023-02-01T01:57:24;5.30;99.90
4677;DHT22;2352;48.180;11.478;2023-02-01T02:00:28;5.20;99.90
4677;DHT22;2352;48.180;11.478;2023-02-01T02:03:34;5.40;99.90
4677;DHT22;2352;48.180;11.478;2023-02-01T02:06:41;5.10;99.90
4677;DHT22;2352;48.180;11.478;2023-02-01T02:09:48;5.10;99.90
4677;DHT22;2352;48.180;11.478;2023-02-01T02:13:01;5.00;99.90
4677;DHT22;2352;48.180;11.478;2023-02-01T02:16:17;4.90;99.90
4677;DHT22;2352;48.180;11.478;2023-02-01T02:23:59;4.90;99.90
4677;DHT22;2352;48.180;11.478;2023-02-01T02:27:16;5.00;99.90
4677;DHT22;2352;48.180;11.478;2023-02-01T02:30:41;5.00;99.90
4677;DHT22;2352;48.180;11.478;2023-02-01T02:34:02;5.10;99.90
4677;DHT22;2352;48.180;11.478;2023-02-01T02:37:16;5.20;99.90
4677;DHT22;2352;48.180;11.478;2023-02-01T02:40:30;5.20;99.90
4677;DHT22;2352;48.180;11.478;2023-02-01T02:43:40;5.20;99.90
4677;DHT22;2352;48.180;11.478;2023-02-01T02:47:15;5.00;99.90
4677;DHT22;2352;48.180;11.478;2023-02-01T02:50:32;5.00;99.90
4677;DHT22;2352;48.180;11.478;2023-02-01T02:53:59;5.00;99.90
4677;DHT22;2352;48.180;11.478;2023-02-01T02:57:24;5.00;99.90
4677;DHT22;2352;48.180;11.478;2023-02-01T03:00:46;5.10;99.90
4677;DHT22;2352;48.180;11.478;2023-02-01T03:04:08;5.00;99.90
4677;DHT22;2352;48.180;11.478;2023-02-01T03:07:52;5.10;99.90
4677;DHT22;2352;48.180;11.478;2023-02-01T03:10:58;5.20;99.90
4677;DHT22;2352;48.180;11.478;2023-02-01T03:14:03;5.10;99.90
4677;DHT22;2352;48.180;11.478;2023-02-01T03:17:11;5.20;99.90
4677;DHT22;2352;48.180;11.478;2023-02-01T03:20:18;5.20;99.90
4677;DHT22;2352;48.180;11.478;2023-02-01T03:23:26;5.10;99.90
4677;DHT22;2352;48.180;11.478;2023-02-01T03:26:31;5.20;99.90
4677;DHT22;2352;48.180;11.478;2023-02-01T03:29:48;5.20;99.90
4677;DHT22;2352;48.180;11.478;2023-02-01T03:32:56;5.10;99.90
4677;DHT22;2352;48.180;11.478;2023-02-01T03:36:08;5.10;99.90
4677;DHT22;2352;48.180;11.478;2023-02-01T03:39:16;5.10;99.90
4677;DHT22;2352;48.180;11.478;2023-02-01T03:42:26;5.20;99.90
4677;DHT22;2352;48.180;11.478;2023-02-01T03:45:34;5.30;99.90
4677;DHT22;2352;48.180;11.478;2023-02-01T03:48:39;5.20;99.90
4677;DHT22;2352;48.180;11.478;2023-02-01T03:51:43;5.10;99.90
4677;DHT22;2352;48.180;11.478;2023-02-01T03:54:47;5.20;99.90
4677;DHT22;2352;48.180;11.478;2023-02-01T03:57:53;5.20;99.90
4677;DHT22;2352;48.180;11.478;2023-02-01T04:00:59;5.20;99.90
4677;DHT22;2352;48.180;11.478;2023-02-01T04:04:02;5.20;99.90
4677;DHT22;2352;48.180;11.478;2023-02-01T04:07:05;5.00;99.90
4677;DHT22;2352;48.180;11.478;2023-02-01T04:10:10;4.90;99.90
4677;DHT22;2352;48.180;11.478;2023-02-01T04:13:13;5.00;99.90
4677;DHT22;2352;48.180;11.478;2023-02-01T04:16:16;5.10;99.90
4677;DHT22;2352;48.180;11.478;2023-02-01T04:19:19;5.10;99.90
4677;DHT22;2352;48.180;11.478;2023-02-01T04:22:22;5.30;99.80
4677;DHT22;2352;48.180;11.478;2023-02-01T04:25:26;5.20;99.70
4677;DHT22;2352;48.180;11.478;2023-02-01T04:28:29;5.30;99.70
4677;DHT22;2352;48.180;11.478;2023-02-01T04:31:32;5.30;99.40
4677;DHT22;2352;48.180;11.478;2023-02-01T04:34:37;5.30;99.40
4677;DHT22;2352;48.180;11.478;2023-02-01T04:37:40;5.20;99.50
4677;DHT22;2352;48.180;11.478;2023-02-01T04:40:47;5.20;99.40
4677;DHT22;2352;48.180;11.478;2023-02-01T04:43:50;5.20;99.50
4677;DHT22;2352;48.180;11.478;2023-02-01T04:46:54;5.00;99.60
4677;DHT22;2352;48.180;11.478;2023-02-01T04:49:56;5.00;99.70
4677;DHT22;2352;48.180;11.478;2023-02-01T04:52:59;5.10;99.70
4677;DHT22;2352;48.180;11.478;2023-02-01T04:56:04;5.20;99.30
4677;DHT22;2352;48.180;11.478;2023-02-01T04:59:07;5.00;99.40
4677;DHT22;2352;48.180;11.478;2023-02-01T05:02:10;5.00;99.40
4677;DHT22;2352;48.180;11.478;2023-02-01T05:05:13;5.10;99.60
4677;DHT22;2352;48.180;11.478;2023-02-01T05:08:16;5.10;99.60
4677;DHT22;2352;48.180;11.478;2023-02-01T05:11:20;5.10;99.40
4677;DHT22;2352;48.180;11.478;2023-02-01T05:14:41;5.20;99.20
4677;DHT22;2352;48.180;11.478;2023-02-01T05:17:43;5.20;99.00
4677;DHT22;2352;48.180;11.478;2023-02-01T05:20:46;5.10;99.30
4677;DHT22;2352;48.180;11.478;2023-02-01T05:23:49;5.10;99.30
4677;DHT22;2352;48.180;11.478;2023-02-01T05:27:11;5.10;99.30
4677;DHT22;2352;48.180;11.478;2023-02-01T05:30:14;5.00;99.50
4677;DHT22;2352;48.180;11.478;2023-02-01T05:33:17;5.00;99.40
4677;DHT22;2352;48.180;11.478;2023-02-01T05:36:20;5.10;99.30
4677;DHT22;2352;48.180;11.478;2023-02-01T05:39:23;5.10;99.00
4677;DHT22;2352;48.180;11.478;2023-02-01T05:42:28;5.20;99.00
4677;DHT22;2352;48.180;11.478;2023-02-01T05:45:30;5.20;98.80
4677;DHT22;2352;48.180;11.478;2023-02-01T05:48:33;5.10;98.90
4677;DHT22;2352;48.180;11.478;2023-02-01T05:51:36;5.00;99.00
4677;DHT22;2352;48.180;11.478;2023-02-01T05:54:39;4.90;99.40
4677;DHT22;2352;48.180;11.478;2023-02-01T05:57:43;5.00;99.40
4677;DHT22;2352;48.180;11.478;2023-02-01T06:00:46;5.10;99.20
4677;DHT22;2352;48.180;11.478;2023-02-01T06:03:49;5.20;99.00
4677;DHT22;2352;48.180;11.478;2023-02-01T06:06:52;5.20;98.80
4677;DHT22;2352;48.180;11.478;2023-02-01T06:09:55;5.10;99.00
4677;DHT22;2352;48.180;11.478;2023-02-01T06:12:59;5.00;99.40
4677;DHT22;2352;48.180;11.478;2023-02-01T06:16:02;5.00;99.40
4677;DHT22;2352;48.180;11.478;2023-02-01T06:19:06;5.00;99.20
4677;DHT22;2352;48.180;11.478;2023-02-01T06:22:10;5.10;99.10
4677;DHT22;2352;48.180;11.478;2023-02-01T06:25:13;5.10;99.00
4677;DHT22;2352;48.180;11.478;2023-02-01T06:28:19;5.00;99.00
4677;DHT22;2352;48.180;11.478;2023-02-01T06:31:23;4.90;99.40
4677;DHT22;2352;48.180;11.478;2023-02-01T06:34:26;4.90;99.40
4677;DHT22;2352;48.180;11.478;2023-02-01T06:37:29;5.00;99.30
4677;DHT22;2352;48.180;11.478;2023-02-01T06:40:32;5.10;99.10
4677;DHT22;2352;48.180;11.478;2023-02-01T06:43:36;5.00;99.10
4677;DHT22;2352;48.180;11.478;2023-02-01T06:46:39;5.00;99.10
4677;DHT22;2352;48.180;11.478;2023-02-01T06:49:42;5.10;99.10
4677;DHT22;2352;48.180;11.478;2023-02-01T06:52:45;5.10;99.00
4677;DHT22;2352;48.180;11.478;2023-02-01T06:55:52;5.20;98.80
4677;DHT22;2352;48.180;11.478;2023-02-01T06:58:57;5.00;99.10
4677;DHT22;2352;48.180;11.478;2023-02-01T07:02:00;5.10;99.10
4677;DHT22;2352;48.180;11.478;2023-02-01T07:05:03;5.00;99.10
4677;DHT22;2352;48.180;11.478;2023-02-01T07:08:06;5.10;99.10
4677;DHT22;2352;48.180;11.478;2023-02-01T07:11:11;5.10;99.00
4677;DHT22;2352;48.180;11.478;2023-02-01T07:14:15;5.20;98.60
4677;DHT22;2352;48.180;11.478;2023-02-01T07:17:18;5.20;98.60
4677;DHT22;2352;48.180;11.478;2023-02-01T07:20:21;5.20;98.60
4677;DHT22;2352;48.180;11.478;2023-02-01T07:23:25;5.20;98.60
4677;DHT22;2352;48.180;11.478;2023-02-01T07:26:28;5.10;98.60
4677;DHT22;2352;48.180;11.478;2023-02-01T07:29:32;5.20;98.30
4677;DHT22;2352;48.180;11.478;2023-02-01T07:32:36;5.30;98.10
4677;DHT22;2352;48.180;11.478;2023-02-01T07:35:39;5.40;97.80
4677;DHT22;2352;48.180;11.478;2023-02-01T07:38:42;5.40;97.80
4677;DHT22;2352;48.180;11.478;2023-02-01T07:41:45;5.30;97.80
4677;DHT22;2352;48.180;11.478;2023-02-01T07:44:50;5.40;97.70
4677;DHT22;2352;48.180;11.478;2023-02-01T07:47:53;5.40;97.60
4677;DHT22;2352;48.180;11.478;2023-02-01T07:50:59;5.40;97.60
4677;DHT22;2352;48.180;11.478;2023-02-01T07:54:03;5.40;97.60
4677;DHT22;2352;48.180;11.478;2023-02-01T07:57:05;5.50;97.60
4677;DHT22;2352;48.180;11.478;2023-02-01T08:00:13;5.60;97.40
4677;DHT22;2352;48.180;11.478;2023-02-01T08:03:33;5.60;97.10
4677;DHT22;2352;48.180;11.478;2023-02-01T08:06:36;5.60;96.90
4677;DHT22;2352;48.180;11.478;2023-02-01T08:09:39;5.50;97.10
4677;DHT22;2352;48.180;11.478;2023-02-01T08:12:42;5.40;97.10
4677;DHT22;2352;48.180;11.478;2023-02-01T08:15:50;5.50;96.90
4677;DHT22;2352;48.180;11.478;2023-02-01T08:18:53;5.60;96.70
4677;DHT22;2352;48.180;11.478;2023-02-01T08:21:56;5.60;96.40
4677;DHT22;2352;48.180;11.478;2023-02-01T08:25:00;5.60;96.30
4677;DHT22;2352;48.180;11.478;2023-02-01T08:28:04;5.60;96.20
4677;DHT22;2352;48.180;11.478;2023-02-01T08:31:11;5.60;96.20
4677;DHT22;2352;48.180;11.478;2023-02-01T08:34:16;5.80;95.70
4677;DHT22;2352;48.180;11.478;2023-02-01T08:37:19;5.70;95.80
4677;DHT22;2352;48.180;11.478;2023-02-01T08:40:22;5.80;95.70
4677;DHT22;2352;48.180;11.478;2023-02-01T08:43:25;5.90;95.40
4677;DHT22;2352;48.180;11.478;2023-02-01T08:46:29;5.80;95.30
4677;DHT22;2352;48.180;11.478;2023-02-01T08:49:32;5.80;95.50
4677;DHT22;2352;48.180;11.478;2023-02-01T08:52:35;5.70;95.50
4677;DHT22;2352;48.180;11.478;2023-02-01T08:55:39;5.80;95.00
4677;DHT22;2352;48.180;11.478;2023-02-01T08:58:42;5.80;95.00
4677;DHT22;2352;48.180;11.478;2023-02-01T09:01:46;5.90;94.90
4677;DHT22;2352;48.180;11.478;2023-02-01T09:04:49;5.80;94.80
4677;DHT22;2352;48.180;11.478;2023-02-01T09:07:52;5.90;94.70
4677;DHT22;2352;48.180;11.478;2023-02-01T09:10:59;5.80;94.70
4677;DHT22;2352;48.180;11.478;2023-02-01T09:14:04;6.00;94.50
4677;DHT22;2352;48.180;11.478;2023-02-01T09:17:09;5.80;94.50
4677;DHT22;2352;48.180;11.478;2023-02-01T09:20:12;5.90;94.40
4677;DHT22;2352;48.180;11.478;2023-02-01T09:23:15;5.90;94.40
4677;DHT22;2352;48.180;11.478;2023-02-01T09:26:18;6.00;94.40
4677;DHT22;2352;48.180;11.478;2023-02-01T09:29:32;6.00;94.60
4677;DHT22;2352;48.180;11.478;2023-02-01T09:32:36;6.10;94.20
4677;DHT22;2352;48.180;11.478;2023-02-01T09:35:39;6.10;94.40
4677;DHT22;2352;48.180;11.478;2023-02-01T09:38:42;6.00;94.60
4677;DHT22;2352;48.180;11.478;2023-02-01T09:41:59;6.00;94.50
4677;DHT22;2352;48.180;11.478;2023-02-01T09:45:14;6.10;94.70
4677;DHT22;2352;48.180;11.478;2023-02-01T09:48:26;6.20;94.40
4677;DHT22;2352;48.180;11.478;2023-02-01T09:51:34;6.10;94.60
4677;DHT22;2352;48.180;11.478;2023-02-01T09:54:41;6.20;94.60
4677;DHT22;2352;48.180;11.478;2023-02-01T09:57:50;6.40;94.50
4677;DHT22;2352;48.180;11.478;2023-02-01T10:00:58;6.30;94.20
4677;DHT22;2352;48.180;11.478;2023-02-01T10:04:07;6.30;94.10
4677;DHT22;2352;48.180;11.478;2023-02-01T10:07:19;6.20;94.10
4677;DHT22;2352;48.180;11.478;2023-02-01T10:10:28;6.20;94.40
4677;DHT22;2352;48.180;11.478;2023-02-01T10:13:43;6.20;94.50
4677;DHT22;2352;48.180;11.478;2023-02-01T10:16:55;6.20;94.60
4677;DHT22;2352;48.180;11.478;2023-02-01T10:20:09;6.10;95.00
4677;DHT22;2352;48.180;11.478;2023-02-01T10:23:28;5.90;95.10
4677;DHT22;2352;48.180;11.478;2023-02-01T10:26:37;5.90;95.20
4677;DHT22;2352;48.180;11.478;2023-02-01T10:29:45;6.00;95.00
4677;DHT22;2352;48.180;11.478;2023-02-01T10:32:55;5.90;95.20
4677;DHT22;2352;48.180;11.478;2023-02-01T10:36:05;6.10;94.90
4677;DHT22;2352;48.180;11.478;2023-02-01T10:39:12;6.00;95.00
4677;DHT22;2352;48.180;11.478;2023-02-01T10:42:19;6.20;95.00
4677;DHT22;2352;48.180;11.478;2023-02-01T10:45:26;6.20;94.60
4677;DHT22;2352;48.180;11.478;2023-02-01T10:48:30;6.10;95.00
4677;DHT22;2352;48.180;11.478;2023-02-01T10:51:42;6.20;94.90
4677;DHT22;2352;48.180;11.478;2023-02-01T10:54:46;6.30;94.80
4677;DHT22;2352;48.180;11.478;2023-02-01T10:57:56;6.40;94.60
4677;DHT22;2352;48.180;11.478;2023-02-01T11:01:00;6.30;94.30
4677;DHT22;2352;48.180;11.478;2023-02-01T11:04:05;6.30;94.30
4677;DHT22;2352;48.180;11.478;2023-02-01T11:07:17;6.00;94.60
4677;DHT22;2352;48.180;11.478;2023-02-01T11:10:36;6.10;94.80
4677;DHT22;2352;48.180;11.478;2023-02-01T11:13:40;6.20;94.70
4677;DHT22;2352;48.180;11.478;2023-02-01T11:16:47;6.10;94.70
4677;DHT22;2352;48.180;11.478;2023-02-01T11:19:57;6.10;94.90
4677;DHT22;2352;48.180;11.478;2023-02-01T11:23:02;6.20;94.90
4677;DHT22;2352;48.180;11.478;2023-02-01T11:26:11;6.30;95.00
4677;DHT22;2352;48.180;11.478;2023-02-01T11:29:17;6.40;94.70
4677;DHT22;2352;48.180;11.478;2023-02-01T11:32:24;6.40;94.40
4677;DHT22;2352;48.180;11.478;2023-02-01T11:35:28;6.40;94.60
4677;DHT22;2352;48.180;11.478;2023-02-01T11:38:34;6.20;94.40
4677;DHT22;2352;48.180;11.478;2023-02-01T11:41:44;6.20;94.70
4677;DHT22;2352;48.180;11.478;2023-02-01T11:45:19;6.20;94.50
4677;DHT22;2352;48.180;11.478;2023-02-01T11:48:24;6.00;94.80
4677;DHT22;2352;48.180;11.478;2023-02-01T11:51:39;6.00;95.00
4677;DHT22;2352;48.180;11.478;2023-02-01T11:55:01;6.00;95.20
4677;DHT22;2352;48.180;11.478;2023-02-01T11:58:20;6.00;95.20
4677;DHT22;2352;48.180;11.478;2023-02-01T12:01:34;6.00;95.60
4677;DHT22;2352;48.180;11.478;2023-02-01T12:05:06;5.80;95.60
4677;DHT22;2352;48.180;11.478;2023-02-01T12:08:28;5.80;95.90
4677;DHT22;2352;48.180;11.478;2023-02-01T12:11:46;5.90;95.70
4677;DHT22;2352;48.180;11.478;2023-02-01T12:15:05;5.80;96.00
4677;DHT22;2352;48.180;11.478;2023-02-01T12:18:44;5.90;96.00
4677;DHT22;2352;48.180;11.478;2023-02-01T12:22:12;6.10;95.70
4677;DHT22;2352;48.180;11.478;2023-02-01T12:25:33;5.90;95.40
4677;DHT22;2352;48.180;11.478;2023-02-01T12:28:53;5.70;95.90
4677;DHT22;2352;48.180;11.478;2023-02-01T12:32:11;5.80;95.80
4677;DHT22;2352;48.180;11.478;2023-02-01T12:35:48;6.10;95.40
4677;DHT22;2352;48.180;11.478;2023-02-01T12:38:58;6.00;95.30
4677;DHT22;2352;48.180;11.478;2023-02-01T12:42:09;6.10;94.90
4677;DHT22;2352;48.180;11.478;2023-02-01T12:45:26;6.10;94.90
4677;DHT22;2352;48.180;11.478;2023-02-01T12:48:34;6.10;94.90
4677;DHT22;2352;48.180;11.478;2023-02-01T12:51:42;6.00;94.60
4677;DHT22;2352;48.180;11.478;2023-02-01T12:54:50;6.10;94.60
4677;DHT22;2352;48.180;11.478;2023-02-01T12:58:06;6.20;94.20
4677;DHT22;2352;48.180;11.478;2023-02-01T13:01:18;6.10;94.10
4677;DHT22;2352;48.180;11.478;2023-02-01T13:04:28;6.30;93.70
4677;DHT22;2352;48.180;11.478;2023-02-01T13:07:37;6.20;93.90
4677;DHT22;2352;48.180;11.478;2023-02-01T13:10:46;6.20;93.80
4677;DHT22;2352;48.180;11.478;2023-02-01T13:13:57;6.20;93.60
4677;DHT22;2352;48.180;11.478;2023-02-01T13:17:05;6.00;94.00
4677;DHT22;2352;48.180;11.478;2023-02-01T13:20:17;6.10;94.20
4677;DHT22;2352;48.180;11.478;2023-02-01T13:23:26;6.00;94.30
4677;DHT22;2352;48.180;11.478;2023-02-01T13:26:30;6.00;94.70
4677;DHT22;2352;48.180;11.478;2023-02-01T13:29:33;6.10;94.70
4677;DHT22;2352;48.180;11.478;2023-02-01T13:32:55;6.00;95.10
4677;DHT22;2352;48.180;11.478;2023-02-01T13:36:44;6.10;95.10
4677;DHT22;2352;48.180;11.478;2023-02-01T13:39:58;5.90;95.40
4677;DHT22;2352;48.180;11.478;2023-02-01T13:43:06;6.00;95.80
4677;DHT22;2352;48.180;11.478;2023-02-01T13:46:11;5.90;96.10
4677;DHT22;2352;48.180;11.478;2023-02-01T13:49:21;6.00;96.10
4677;DHT22;2352;48.180;11.478;2023-02-01T13:52:28;6.00;96.10
4677;DHT22;2352;48.180;11.478;2023-02-01T13:55:34;6.10;96.00
4677;DHT22;2352;48.180;11.478;2023-02-01T13:58:39;6.00;96.00
4677;DHT22;2352;48.180;11.478;2023-02-01T14:01:43;5.80;96.50
4677;DHT22;2352;48.180;11.478;2023-02-01T14:04:49;5.90;96.50
4677;DHT22;2352;48.180;11.478;2023-02-01T14:08:11;6.00;96.40
4677;DHT22;2352;48.180;11.478;2023-02-01T14:11:35;6.10;96.30
4677;DHT22;2352;48.180;11.478;2023-02-01T14:14:40;6.10;96.20
4677;DHT22;2352;48.180;11.478;2023-02-01T14:17:42;6.00;96.20
4677;DHT22;2352;48.180;11.478;2023-02-01T14:20:47;6.00;96.10
4677;DHT22;2352;48.180;11.478;2023-02-01T14:23:58;5.90;96.30
4677;DHT22;2352;48.180;11.478;2023-02-01T14:27:13;5.90;96.30
4677;DHT22;2352;48.180;11.478;2023-02-01T14:30:19;5.90;96.00
4677;DHT22;2352;48.180;11.478;2023-02-01T14:33:24;5.70;96.10
4677;DHT22;2352;48.180;11.478;2023-02-01T14:36:40;5.80;96.00
4677;DHT22;2352;48.180;11.478;2023-02-01T14:39:53;5.70;95.70
4677;DHT22;2352;48.180;11.478;2023-02-01T14:42:57;5.70;95.80
4677;DHT22;2352;48.180;11.478;2023-02-01T14:46:00;5.80;95.20
4677;DHT22;2352;48.180;11.478;2023-02-01T14:49:03;5.70;94.70
4677;DHT22;2352;48.180;11.478;2023-02-01T14:52:14;5.60;95.10
4677;DHT22;2352;48.180;11.478;2023-02-01T14:55:24;5.90;94.80
4677;DHT22;2352;48.180;11.478;2023-02-01T14:58:34;6.00;94.40
4677;DHT22;2352;48.180;11.478;2023-02-01T15:01:39;5.90;94.70
4677;DHT22;2352;48.180;11.478;2023-02-01T15:04:54;5.80;94.60
4677;DHT22;2352;48.180;11.478;2023-02-01T15:08:04;5.80;94.70
4677;DHT22;2352;48.180;11.478;2023-02-01T15:11:14;5.90;94.70
4677;DHT22;2352;48.180;11.478;2023-02-01T15:14:17;5.90;94.60
4677;DHT22;2352;48.180;11.478;2023-02-01T15:17:21;6.10;94.40
4677;DHT22;2352;48.180;11.478;2023-02-01T15:20:27;6.20;94.10
4677;DHT22;2352;48.180;11.478;2023-02-01T15:23:33;6.00;94.00
4677;DHT22;2352;48.180;11.478;2023-02-01T15:26:36;5.90;94.20
4677;DHT22;2352;48.180;11.478;2023-02-01T15:29:39;6.00;94.40
4677;DHT22;2352;48.180;11.478;2023-02-01T15:32:42;5.80;94.50
4677;DHT22;2352;48.180;11.478;2023-02-01T15:35:46;5.90;94.90
4677;DHT22;2352;48.180;11.478;2023-02-01T15:39:18;6.10;94.80
4677;DHT22;2352;48.180;11.478;2023-02-01T15:42:21;5.90;95.30
4677;DHT22;2352;48.180;11.478;2023-02-01T15:45:26;5.90;95.20
4677;DHT22;2352;48.180;11.478;2023-02-01T15:48:32;6.00;94.80
4677;DHT22;2352;48.180;11.478;2023-02-01T15:51:37;5.80;94.60
4677;DHT22;2352;48.180;11.478;2023-02-01T15:54:45;5.70;94.90
4677;DHT22;2352;48.180;11.478;2023-02-01T15:57:50;5.80;94.80
4677;DHT22;2352;48.180;11.478;2023-02-01T16:00:55;5.80;95.00
4677;DHT22;2352;48.180;11.478;2023-02-01T16:04:09;5.80;95.00
4677;DHT22;2352;48.180;11.478;2023-02-01T16:07:25;5.80;94.90
4677;DHT22;2352;48.180;11.478;2023-02-01T16:10:30;5.90;94.90
4677;DHT22;2352;48.180;11.478;2023-02-01T16:13:33;6.00;94.70
4677;DHT22;2352;48.180;11.478;2023-02-01T16:16:36;5.90;94.70
4677;DHT22;2352;48.180;11.478;2023-02-01T16:19:39;5.80;94.80
4677;DHT22;2352;48.180;11.478;2023-02-01T16:22:42;5.90;94.60
4677;DHT22;2352;48.180;11.478;2023-02-01T16:25:46;6.00;94.30
4677;DHT22;2352;48.180;11.478;2023-02-01T16:28:49;5.90;94.20
4677;DHT22;2352;48.180;11.478;2023-02-01T16:31:52;5.90;94.00
4677;DHT22;2352;48.180;11.478;2023-02-01T16:34:56;5.60;94.20
4677;DHT22;2352;48.180;11.478;2023-02-01T16:37:59;5.60;94.50
4677;DHT22;2352;48.180;11.478;2023-02-01T16:41:04;5.60;94.40
4677;DHT22;2352;48.180;11.478;2023-02-01T16:44:08;5.70;94.40
4677;DHT22;2352;48.180;11.478;2023-02-01T16:47:14;5.60;94.70
4677;DHT22;2352;48.180;11.478;2023-02-01T16:50:21;5.50;94.90
4677;DHT22;2352;48.180;11.478;2023-02-01T16:53:26;5.50;94.70
4677;DHT22;2352;48.180;11.478;2023-02-01T16:56:33;5.50;94.70
4677;DHT22;2352;48.180;11.478;2023-02-01T16:59:37;5.50;94.70
4677;DHT22;2352;48.180;11.478;2023-02-01T17:02:40;5.60;94.70
4677;DHT22;2352;48.180;11.478;2023-02-01T17:05:45;5.60;94.70
4677;DHT22;2352;48.180;11.478;2023-02-01T17:08:51;5.80;94.50
4677;DHT22;2352;48.180;11.478;2023-02-01T17:11:55;5.60;94.60
4677;DHT22;2352;48.180;11.478;2023-02-01T17:14:59;5.70;94.30
4677;DHT22;2352;48.180;11.478;2023-02-01T17:18:02;5.80;94.00
4677;DHT22;2352;48.180;11.478;2023-02-01T17:21:05;5.80;93.70
4677;DHT22;2352;48.180;11.478;2023-02-01T17:24:11;5.70;93.70
4677;DHT22;2352;48.180;11.478;2023-02-01T17:27:16;5.60;93.90
4677;DHT22;2352;48.180;11.478;2023-02-01T17:30:19;5.60;93.90
4677;DHT22;2352;48.180;11.478;2023-02-01T17:33:25;5.60;93.70
4677;DHT22;2352;48.180;11.478;2023-02-01T17:36:28;5.70;93.70
4677;DHT22;2352;48.180;11.478;2023-02-01T17:39:31;5.60;93.70
4677;DHT22;2352;48.180;11.478;2023-02-01T17:42:53;5.70;93.30
4677;DHT22;2352;48.180;11.478;2023-02-01T17:46:00;5.70;93.20
4677;DHT22;2352;48.180;11.478;2023-02-01T17:49:05;5.70;93.10
4677;DHT22;2352;48.180;11.478;2023-02-01T17:52:09;5.60;93.10
4677;DHT22;2352;48.180;11.478;2023-02-01T17:55:18;5.70;92.90
4677;DHT22;2352;48.180;11.478;2023-02-01T17:58:26;5.70;92.90
4677;DHT22;2352;48.180;11.478;2023-02-01T18:01:31;5.70;92.90
4677;DHT22;2352;48.180;11.478;2023-02-01T18:04:34;5.70;92.80
4677;DHT22;2352;48.180;11.478;2023-02-01T18:07:38;5.70;92.90
4677;DHT22;2352;48.180;11.478;2023-02-01T18:10:41;5.80;92.50
4677;DHT22;2352;48.180;11.478;2023-02-01T18:13:46;5.80;92.50
4677;DHT22;2352;48.180;11.478;2023-02-01T18:16:49;5.80;92.50
4677;DHT22;2352;48.180;11.478;2023-02-01T18:19:52;5.80;92.60
4677;DHT22;2352;48.180;11.478;2023-02-01T18:22:55;5.80;92.30
4677;DHT22;2352;48.180;11.478;2023-02-01T18:25:58;5.80;92.20
4677;DHT22;2352;48.180;11.478;2023-02-01T18:29:03;5.80;92.30
4677;DHT22;2352;48.180;11.478;2023-02-01T18:32:08;5.90;92.20
4677;DHT22;2352;48.180;11.478;2023-02-01T18:35:17;5.70;92.10
4677;DHT22;2352;48.180;11.478;2023-02-01T18:38:20;5.60;92.20
4677;DHT22;2352;48.180;11.478;2023-02-01T18:41:24;5.80;92.30
4677;DHT22;2352;48.180;11.478;2023-02-01T18:44:29;5.80;92.30
4677;DHT22;2352;48.180;11.478;2023-02-01T18:47:32;5.70;92.40
4677;DHT22;2352;48.180;11.478;2023-02-01T18:50:38;5.80;92.80
4677;DHT22;2352;48.180;11.478;2023-02-01T18:53:41;5.80;92.10
4677;DHT22;2352;48.180;11.478;2023-02-01T18:56:44;5.70;92.20
4677;DHT22;2352;48.180;11.478;2023-02-01T18:59:48;5.60;92.30
4677;DHT22;2352;48.180;11.478;2023-02-01T19:02:51;5.60;92.30
4677;DHT22;2352;48.180;11.478;2023-02-01T19:05:55;5.60;92.40
4677;DHT22;2352;48.180;11.478;2023-02-01T19:08:58;5.50;92.60
4677;DHT22;2352;48.180;11.478;2023-02-01T19:12:01;5.60;92.50
4677;DHT22;2352;48.180;11.478;2023-02-01T19:15:09;5.90;92.20
4677;DHT22;2352;48.180;11.478;2023-02-01T19:18:16;5.70;92.00
4677;DHT22;2352;48.180;11.478;2023-02-01T19:21:21;5.70;91.90
4677;DHT22;2352;48.180;11.478;2023-02-01T19:24:24;5.60;92.20
4677;DHT22;2352;48.180;11.478;2023-02-01T19:27:28;5.80;92.10
4677;DHT22;2352;48.180;11.478;2023-02-01T19:30:33;5.80;91.90
4677;DHT22;2352;48.180;11.478;2023-02-01T19:33:36;6.00;91.60
4677;DHT22;2352;48.180;11.478;2023-02-01T19:36:39;5.80;91.60
4677;DHT22;2352;48.180;11.478;2023-02-01T19:39:44;5.90;91.70
4677;DHT22;2352;48.180;11.478;2023-02-01T19:42:48;5.90;91.70
4677;DHT22;2352;48.180;11.478;2023-02-01T19:45:52;5.80;91.80
4677;DHT22;2352;48.180;11.478;2023-02-01T19:48:56;5.60;92.10
4677;DHT22;2352;48.180;11.478;2023-02-01T19:51:59;5.70;92.10
4677;DHT22;2352;48.180;11.478;2023-02-01T19:55:02;5.70;91.90
4677;DHT22;2352;48.180;11.478;2023-02-01T19:58:06;5.80;92.10
4677;DHT22;2352;48.180;11.478;2023-02-01T20:01:11;5.80;92.10
4677;DHT22;2352;48.180;11.478;2023-02-01T20:04:15;5.70;92.00
4677;DHT22;2352;48.180;11.478;2023-02-01T20:07:18;5.60;92.40
4677;DHT22;2352;48.180;11.478;2023-02-01T20:10:21;5.60;92.20
4677;DHT22;2352;48.180;11.478;2023-02-01T20:13:24;5.70;92.30
4677;DHT22;2352;48.180;11.478;2023-02-01T20:16:28;5.80;92.00
4677;DHT22;2352;48.180;11.478;2023-02-01T20:19:32;5.80;91.80
4677;DHT22;2352;48.180;11.478;2023-02-01T20:22:34;5.80;91.90
4677;DHT22;2352;48.180;11.478;2023-02-01T20:25:37;5.70;92.30